Time;durP1;ratioP1;P1;durP2;ratioP2;P2;SDS_P1;SDS_P2;PMS_P1;PMS_P2;Temp;Humidity;BMP_temperature;BMP_pressure;BME280_temperature;BME280_humidity;BME280_pressure;Samples;Min_cycle;Max_cycle;Signal;HPM_P1;HPM_P2
2023/05/17 00:54:32;;;;;;;19.05;8.63;;;436.10;2355.20;;;;;;4885645;29;20050;-85
2023/05/17 01:55:54;;;;;;;22.40;9.95;;;410.50;2355.20;;;;;;4941579;29;20068;-84
2023/05/17 02:36:44;;;;;;;25.80;9.57;;;435.30;2355.20;;;;;;5004994;23;20069;-85
2023/05/17 03:11:07;;;;;;;24.70;11.18;;;410.20;2355.20;;;;;;4775016;30;20067;-83
2023/05/17 04:30:07;;;;;;;21.80;8.98;;;384.50;2329.60;;;;;;4919827;29;20055;-84
2023/05/17 04:37:14;;;;;;;19.08;9.73;;;384.50;2329.60;;;;;;4905004;29;20032;-85
2023/05/17 05:29:56;;;;;;;24.15;9.02;;;410.20;2355.20;;;;;;4968057;23;20047;-88
2023/05/17 05:32:30;;;;;;;19.17;7.93;;;410.20;2355.20;;;;;;4942390;29;20036;-86
2023/05/17 05:34:58;;;;;;;15.63;8.85;;;410.20;2355.20;;;;;;4959939;29;20035;-84
2023/05/17 05:37:38;;;;;;;17.77;7.72;;;410.30;2355.20;;;;;;4959411;29;20034;-84
2023/05/17 05:40:14;;;;;;;15.88;8.07;;;410.30;2355.20;;;;;;4959689;29;20490;-87
2023/05/17 05:43:24;;;;;;;15.35;8.18;;;410.30;2355.20;;;;;;4920945;29;20072;-87
2023/05/17 05:46:14;;;;;;;18.75;8.65;;;410.40;2355.20;;;;;;4905179;29;20136;-89
2023/05/17 05:49:27;;;;;;;17.30;8.00;;;410.50;2355.20;;;;;;4887484;29;20037;-86
2023/05/17 05:52:04;;;;;;;20.25;8.88;;;410.50;2355.20;;;;;;4850519;29;20034;-85
2023/05/17 05:54:36;;;;;;;15.13;8.77;;;410.50;2355.20;;;;;;4799666;29;20038;-86
2023/05/17 05:57:38;;;;;;;18.08;8.10;;;435.20;2355.20;;;;;;4780202;30;20051;-87
2023/05/17 06:00:59;;;;;;;14.30;7.53;;;435.20;2355.20;;;;;;4787930;30;20059;-89
2023/05/17 06:03:49;;;;;;;13.50;7.40;;;435.30;2355.20;;;;;;4779984;30;20100;-85
2023/05/17 06:06:59;;;;;;;16.77;7.47;;;435.30;2355.20;;;;;;4766647;30;20047;-86
2023/05/17 06:09:50;;;;;;;17.65;8.05;;;435.30;2355.20;;;;;;4766140;30;20040;-86
2023/05/17 06:12:43;;;;;;;17.58;7.45;;;435.20;2355.20;;;;;;4757185;30;20047;-86
2023/05/17 06:15:53;;;;;;;16.17;6.85;;;410.50;2355.20;;;;;;4764623;30;20060;-87
2023/05/17 06:19:00;;;;;;;18.10;8.10;;;435.20;2355.20;;;;;;4760814;30;20043;-87
2023/05/17 06:22:40;;;;;;;13.73;7.38;;;435.20;2355.20;;;;;;4757671;30;20079;-87
2023/05/17 06:26:09;;;;;;;16.10;7.82;;;435.30;2355.20;;;;;;4734806;30;20056;-86
2023/05/17 06:29:28;;;;;;;13.38;7.65;;;435.30;2355.20;;;;;;4749236;30;20265;-87
2023/05/17 06:33:03;;;;;;;15.70;7.97;;;435.50;2355.20;;;;;;4723207;30;20144;-87
2023/05/17 06:36:21;;;;;;;14.30;7.68;;;435.50;2355.20;;;;;;4708191;30;20103;-86
2023/05/17 06:39:10;;;;;;;13.27;7.72;;;435.60;2355.20;;;;;;4707418;30;20050;-86
2023/05/17 06:41:40;;;;;;;14.23;6.53;;;435.70;2355.20;;;;;;4688789;30;20054;-86
2023/05/17 06:44:15;;;;;;;13.70;6.20;;;435.80;2355.20;;;;;;4691381;30;20046;-87
2023/05/17 06:47:34;;;;;;;17.20;8.90;;;435.90;2355.20;;;;;;4756912;30;20025;-86
2023/05/17 06:51:00;;;;;;;13.60;6.80;;;460.80;2380.80;;;;;;4740386;30;20509;-89
2023/05/17 06:53:27;;;;;;;16.52;7.47;;;460.80;2380.80;;;;;;4733621;30;20285;-87
2023/05/17 06:56:21;;;;;;;21.33;8.85;;;460.90;2380.80;;;;;;4756831;30;20120;-85
2023/05/17 06:58:54;;;;;;;16.15;7.50;;;460.90;2380.80;;;;;;4720258;30;20042;-86
2023/05/17 07:01:48;;;;;;;14.45;7.88;;;461.00;2380.80;;;;;;4712179;30;20044;-87
2023/05/17 07:04:30;;;;;;;24.65;7.82;;;460.90;2380.80;;;;;;4731416;30;20040;-87
2023/05/17 07:08:00;;;;;;;15.70;7.43;;;460.90;2380.80;;;;;;4742954;30;20045;-86
2023/05/17 07:11:32;;;;;;;13.90;6.43;;;461.10;2380.80;;;;;;4701263;30;20264;-87
2023/05/17 07:14:42;;;;;;;23.35;7.18;;;461.10;2380.80;;;;;;4713344;30;20037;-88
2023/05/17 07:17:22;;;;;;;15.52;6.95;;;461.30;2380.80;;;;;;4730836;30;20048;-86
2023/05/17 07:20:41;;;;;;;16.77;6.38;;;461.40;2380.80;;;;;;4742026;30;20037;-89
2023/05/17 07:23:28;;;;;;;20.60;6.57;;;461.60;2380.80;;;;;;4713561;30;20045;-86
2023/05/17 07:30:26;;;;;;;12.90;4.93;;;486.60;2380.80;;;;;;4747885;30;20165;-86
2023/05/17 07:33:40;;;;;;;15.13;4.57;;;486.80;2380.80;;;;;;4731658;30;20090;-85
2023/05/17 07:36:32;;;;;;;11.50;4.40;;;487.10;2380.80;;;;;;4750182;30;20068;-86
2023/05/17 07:39:38;;;;;;;12.05;4.35;;;487.10;2380.80;;;;;;4723188;30;20044;-87
2023/05/17 07:49:52;;;;;;;14.82;3.83;;;512.00;2380.80;;;;;;4657035;30;20058;-86
2023/05/17 07:56:38;;;;;;;12.73;4.18;;;512.40;2380.80;;;;;;4643745;30;20055;-86
2023/05/17 08:03:27;;;;;;;14.13;4.53;;;512.90;2380.80;;;;;;4689586;30;20073;-87
2023/05/17 08:07:02;;;;;;;13.90;4.55;;;537.80;2406.40;;;;;;4746838;30;20044;-80
2023/05/17 08:16:37;;;;;;;11.18;5.13;;;537.80;2406.40;;;;;;4760848;30;20163;-82
2023/05/17 08:19:12;;;;;;;13.75;5.47;;;537.80;2406.40;;;;;;4725015;30;20045;-80
2023/05/17 08:21:45;;;;;;;12.13;4.38;;;538.10;2406.40;;;;;;4701127;30;20038;-81
2023/05/17 08:24:19;;;;;;;10.10;4.88;;;538.30;2406.40;;;;;;4700483;30;20084;-86
2023/05/17 08:26:45;;;;;;;9.60;5.05;;;563.30;2432.00;;;;;;4760935;30;20067;-86
2023/05/17 08:29:11;;;;;;;15.00;4.75;;;563.30;2432.00;;;;;;4768907;30;20035;-87
2023/05/17 08:31:37;;;;;;;10.93;5.50;;;563.20;2432.00;;;;;;4774034;30;20055;-85
2023/05/17 08:34:03;;;;;;;15.98;5.47;;;538.50;2406.40;;;;;;4781082;30;20066;-90
2023/05/17 08:36:28;;;;;;;14.27;5.55;;;563.20;2432.00;;;;;;4771148;30;20134;-84
2023/05/17 08:38:54;;;;;;;10.82;5.13;;;563.20;2432.00;;;;;;4769179;30;20040;-85
2023/05/17 08:41:20;;;;;;;12.27;5.40;;;563.40;2432.00;;;;;;4776097;29;20036;-85
2023/05/17 08:43:48;;;;;;;15.40;7.60;;;563.40;2432.00;;;;;;4841451;29;20673;-86
2023/05/17 08:46:15;;;;;;;12.40;6.75;;;563.60;2432.00;;;;;;4889548;29;20035;-86
2023/05/17 08:48:43;;;;;;;14.40;6.43;;;563.70;2432.00;;;;;;4956858;29;20543;-86
2023/05/17 08:51:10;;;;;;;16.77;6.47;;;563.70;2432.00;;;;;;4972860;28;20031;-86
2023/05/17 08:53:37;;;;;;;17.02;7.60;;;563.60;2432.00;;;;;;4955295;29;20041;-87
2023/05/17 08:56:06;;;;;;;15.60;7.93;;;563.50;2432.00;;;;;;4973159;28;20027;-86
2023/05/17 08:58:37;;;;;;;11.98;6.90;;;563.30;2432.00;;;;;;4955219;29;20023;-87
2023/05/17 09:01:06;;;;;;;16.60;8.18;;;563.30;2432.00;;;;;;4956772;29;20428;-86
2023/05/17 09:03:34;;;;;;;16.40;8.40;;;538.50;2406.40;;;;;;4955264;29;20431;-87
2023/05/17 09:06:00;;;;;;;17.63;8.80;;;538.40;2406.40;;;;;;4956444;29;20034;-84
2023/05/17 09:08:27;;;;;;;21.40;7.80;;;538.50;2406.40;;;;;;4955523;29;20023;-84
2023/05/17 09:10:53;;;;;;;16.17;7.53;;;563.40;2432.00;;;;;;4956852;29;20534;-87
2023/05/17 09:13:19;;;;;;;19.45;7.80;;;538.50;2406.40;;;;;;4939277;29;20031;-86
2023/05/17 09:15:48;;;;;;;12.77;7.93;;;563.20;2432.00;;;;;;4956744;29;20496;-87
2023/05/17 09:18:14;;;;;;;16.98;7.93;;;563.60;2432.00;;;;;;4955181;29;20118;-87
2023/05/17 09:20:40;;;;;;;13.88;7.60;;;563.80;2432.00;;;;;;4956551;29;20090;-85
2023/05/17 09:23:12;;;;;;;17.98;7.47;;;564.10;2432.00;;;;;;4955247;29;20035;-90
2023/05/17 09:25:45;;;;;;;20.75;6.65;;;564.10;2432.00;;;;;;4956589;29;20042;-88
2023/05/17 09:28:11;;;;;;;14.25;6.95;;;564.10;2432.00;;;;;;4954145;28;20031;-85
2023/05/17 09:30:38;;;;;;;15.98;7.65;;;564.00;2432.00;;;;;;4954771;29;20070;-85
2023/05/17 09:33:06;;;;;;;14.00;6.90;;;564.00;2432.00;;;;;;4939121;29;20475;-86
2023/05/17 09:35:33;;;;;;;18.90;7.40;;;564.00;2432.00;;;;;;4939289;29;20061;-85
2023/05/17 09:38:12;;;;;;;12.60;7.93;;;564.00;2432.00;;;;;;4938460;29;20023;-85
2023/05/17 09:40:40;;;;;;;14.90;6.85;;;564.10;2432.00;;;;;;4955187;29;20062;-86
2023/05/17 09:43:06;;;;;;;17.70;7.35;;;588.80;2432.00;;;;;;4955085;29;20035;-85
2023/05/17 09:45:33;;;;;;;15.75;7.63;;;588.80;2432.00;;;;;;4955485;29;20037;-87
2023/05/17 09:48:14;;;;;;;15.75;7.53;;;588.80;2432.00;;;;;;4955629;29;20027;-86
2023/05/17 09:51:00;;;;;;;17.50;7.53;;;589.10;2432.00;;;;;;4955568;29;20038;-84
2023/05/17 09:53:31;;;;;;;17.58;9.23;;;589.10;2432.00;;;;;;4955368;29;20031;-84
2023/05/17 09:56:01;;;;;;;16.70;7.43;;;589.10;2432.00;;;;;;4955106;29;20098;-87
2023/05/17 09:58:30;;;;;;;15.05;7.68;;;589.10;2432.00;;;;;;4956630;29;20111;-84
2023/05/17 10:01:04;;;;;;;20.05;9.02;;;589.20;2432.00;;;;;;4954745;29;20252;-85
2023/05/17 10:03:35;;;;;;;18.55;8.15;;;589.40;2432.00;;;;;;4955499;29;20479;-83
2023/05/17 10:06:07;;;;;;;18.23;9.00;;;614.40;2432.00;;;;;;4954166;29;20518;-82
2023/05/17 10:08:34;;;;;;;15.57;8.10;;;614.40;2432.00;;;;;;4955459;29;20031;-84
2023/05/17 10:11:06;;;;;;;20.70;9.13;;;614.40;2432.00;;;;;;4954713;29;20031;-88
2023/05/17 10:13:43;;;;;;;16.42;7.95;;;614.40;2432.00;;;;;;4954425;29;20028;-85
2023/05/17 10:16:10;;;;;;;19.20;8.65;;;614.50;2432.00;;;;;;4954378;29;20090;-84
2023/05/17 10:18:39;;;;;;;14.32;8.90;;;589.70;2432.00;;;;;;4954840;29;20518;-85
2023/05/17 10:21:07;;;;;;;15.88;8.38;;;614.40;2432.00;;;;;;4955238;29;20480;-86
2023/05/17 10:23:34;;;;;;;17.95;12.02;;;614.50;2432.00;;;;;;4954021;29;20053;-87
2023/05/17 10:26:01;;;;;;;16.10;10.18;;;614.60;2432.00;;;;;;4955195;29;20023;-87
2023/05/17 10:28:29;;;;;;;14.90;9.32;;;614.50;2432.00;;;;;;4954685;29;20125;-86
2023/05/17 10:30:56;;;;;;;15.82;9.55;;;614.60;2432.00;;;;;;4954455;29;20047;-90
2023/05/17 10:33:22;;;;;;;15.98;9.25;;;614.60;2432.00;;;;;;4954964;29;20027;-87
2023/05/17 10:35:49;;;;;;;16.30;9.50;;;614.60;2432.00;;;;;;4954469;29;20027;-89
2023/05/17 10:38:16;;;;;;;14.48;8.77;;;614.90;2432.00;;;;;;4955813;28;20038;-88
2023/05/17 10:40:44;;;;;;;19.45;8.68;;;615.30;2432.00;;;;;;4959667;29;20039;-88
2023/05/17 10:43:12;;;;;;;18.15;7.95;;;615.00;2432.00;;;;;;4958549;29;20039;-87
2023/05/17 10:45:40;;;;;;;17.10;7.40;;;615.10;2432.00;;;;;;4958288;29;20031;-88
2023/05/17 10:48:06;;;;;;;14.43;7.72;;;640.00;2432.00;;;;;;4959134;29;20024;-87
2023/05/17 10:50:35;;;;;;;15.75;7.30;;;640.20;2432.00;;;;;;4958647;29;20464;-88
2023/05/17 10:53:04;;;;;;;16.63;6.05;;;640.50;2432.00;;;;;;4959136;29;20059;-88
2023/05/17 10:55:41;;;;;;;15.48;7.35;;;640.70;2380.80;;;;;;4957387;29;20050;-89
2023/05/17 10:58:19;;;;;;;20.38;8.45;;;640.90;2380.80;;;;;;4958265;29;20106;-86
2023/05/17 11:00:52;;;;;;;16.40;6.18;;;665.90;2380.80;;;;;;4967911;28;20087;-86
2023/05/17 11:03:29;;;;;;;13.98;6.40;;;666.00;2380.80;;;;;;4958815;29;20086;-87
2023/05/17 11:06:11;;;;;;;14.73;6.85;;;665.90;2355.20;;;;;;4957179;29;20480;-86
2023/05/17 11:08:46;;;;;;;14.23;6.35;;;666.10;2406.40;;;;;;4959131;29;20070;-85
2023/05/17 11:11:18;;;;;;;11.75;6.60;;;666.20;2406.40;;;;;;4972670;28;20140;-85
2023/05/17 11:13:54;;;;;;;19.15;6.90;;;666.30;2380.80;;;;;;4959094;29;20062;-85
2023/05/17 11:16:22;;;;;;;15.98;6.65;;;666.20;2355.20;;;;;;4957836;29;20054;-84
2023/05/17 11:18:50;;;;;;;12.65;6.47;;;666.40;2329.60;;;;;;4957318;29;20082;-85
2023/05/17 11:21:16;;;;;;;18.30;8.10;;;691.20;2304.00;;;;;;4942953;29;20031;-86
2023/05/17 11:23:44;;;;;;;12.80;6.50;;;691.30;2252.80;;;;;;4941175;29;20032;-85
2023/05/17 11:26:20;;;;;;;14.43;5.95;;;691.40;2252.80;;;;;;4942387;29;20114;-86
2023/05/17 11:28:46;;;;;;;14.38;6.93;;;691.30;2252.80;;;;;;4940777;29;20475;-84
2023/05/17 11:31:13;;;;;;;14.40;7.63;;;691.40;2201.60;;;;;;4958136;29;20082;-84
2023/05/17 11:33:42;;;;;;;14.73;8.00;;;691.30;2176.00;;;;;;4954194;29;20074;-83
2023/05/17 11:36:20;;;;;;;14.65;5.75;;;691.30;2176.00;;;;;;4938681;29;20038;-85
2023/05/17 11:39:09;;;;;;;10.25;4.63;;;691.30;2150.40;;;;;;4943101;28;20057;-85
2023/05/17 11:41:40;;;;;;;13.88;6.72;;;691.40;2124.80;;;;;;4959234;29;20019;-84
2023/05/17 11:44:08;;;;;;;10.43;5.13;;;691.50;2227.20;;;;;;4957148;29;20145;-84
2023/05/17 11:46:36;;;;;;;8.98;5.00;;;691.70;2048.00;;;;;;4956884;29;20384;-85
2023/05/17 11:49:05;;;;;;;15.98;8.70;;;691.60;1996.80;;;;;;4957109;29;20031;-83
2023/05/17 11:51:32;;;;;;;10.95;6.25;;;691.70;1996.80;;;;;;4956880;28;20027;-84
2023/05/17 11:54:02;;;;;;;16.27;5.18;;;691.70;1971.20;;;;;;4956167;29;20031;-84
2023/05/17 11:56:37;;;;;;;12.75;5.22;;;691.90;2022.40;;;;;;4957228;29;20028;-83
2023/05/17 11:59:04;;;;;;;12.20;4.68;;;;;;;;;;4957388;29;20449;-84
2023/05/17 12:01:48;;;;;;;9.77;4.65;;;716.80;2022.40;;;;;;4952306;29;20023;-83
2023/05/17 12:04:21;;;;;;;9.35;4.20;;;716.80;1996.80;;;;;;4938735;29;20491;-83
2023/05/17 12:06:47;;;;;;;11.25;5.65;;;716.80;2048.00;;;;;;4950956;29;20038;-82
2023/05/17 12:09:16;;;;;;;11.98;5.07;;;716.80;1971.20;;;;;;4958391;29;20031;-82
2023/05/17 12:11:42;;;;;;;9.93;4.22;;;716.90;1996.80;;;;;;4956019;29;20031;-81
2023/05/17 12:14:09;;;;;;;8.20;3.80;;;716.80;1996.80;;;;;;4956206;29;20038;-82
2023/05/17 12:16:41;;;;;;;10.40;3.97;;;691.90;1945.60;;;;;;4956280;29;20034;-82
2023/05/17 12:19:18;;;;;;;18.10;5.32;;;691.80;1945.60;;;;;;4955812;29;20031;-83
2023/05/17 12:21:45;;;;;;;14.02;4.55;;;691.60;1971.20;;;;;;4957905;29;20029;-82
2023/05/17 12:24:11;;;;;;;15.75;4.28;;;691.30;1996.80;;;;;;4955793;29;20023;-82
2023/05/17 12:26:43;;;;;;;10.70;4.60;;;666.30;2022.40;;;;;;4941462;29;20037;-83
2023/05/17 12:29:13;;;;;;;14.77;4.20;;;666.20;2073.60;;;;;;4939191;29;20024;-84
2023/05/17 12:31:47;;;;;;;13.05;4.20;;;665.90;2073.60;;;;;;4957097;29;20448;-84
2023/05/17 12:34:15;;;;;;;11.30;3.67;;;665.70;2099.20;;;;;;4955556;29;20527;-85
2023/05/17 12:36:41;;;;;;;11.98;4.40;;;665.60;2150.40;;;;;;4957037;29;20031;-82
2023/05/17 12:39:09;;;;;;;12.70;5.07;;;640.70;2150.40;;;;;;4955695;29;20046;-84
2023/05/17 12:41:37;;;;;;;19.67;5.68;;;640.70;2176.00;;;;;;4940667;29;20028;-84
2023/05/17 12:44:04;;;;;;;15.23;5.13;;;640.60;2176.00;;;;;;4939720;29;20043;-83
2023/05/17 12:46:29;;;;;;;12.13;5.13;;;640.40;2227.20;;;;;;4956848;29;20027;-86
2023/05/17 12:49:05;;;;;;;13.20;5.45;;;640.50;2252.80;;;;;;4954931;29;20020;-87
2023/05/17 12:51:43;;;;;;;12.10;5.47;;;640.50;2278.40;;;;;;4958202;29;20515;-85
2023/05/17 12:54:11;;;;;;;17.45;5.60;;;640.40;2278.40;;;;;;4955298;29;20028;-86
2023/05/17 12:56:36;;;;;;;17.05;5.82;;;640.50;2304.00;;;;;;4957013;29;20035;-86
2023/05/17 12:59:16;;;;;;;16.73;6.80;;;640.60;2304.00;;;;;;4955558;29;20169;-87
2023/05/17 13:01:56;;;;;;;10.82;6.30;;;640.90;2304.00;;;;;;4955782;28;20034;-85
2023/05/17 13:04:32;;;;;;;14.68;8.05;;;665.60;2304.00;;;;;;4955867;29;20027;-85
2023/05/17 13:07:00;;;;;;;13.18;6.82;;;640.90;2278.40;;;;;;4956159;29;20028;-86
2023/05/17 13:09:29;;;;;;;11.77;5.82;;;640.90;2278.40;;;;;;4951960;29;20031;-86
2023/05/17 13:12:05;;;;;;;10.88;6.32;;;640.70;2278.40;;;;;;4938740;29;20023;-88
2023/05/17 13:14:42;;;;;;;11.85;5.82;;;640.50;2278.40;;;;;;4936547;29;20086;-86
2023/05/17 13:17:19;;;;;;;9.40;4.80;;;640.50;2278.40;;;;;;4920450;29;20036;-88
2023/05/17 13:19:45;;;;;;;9.60;4.93;;;640.70;2252.80;;;;;;4956550;29;20034;-83
2023/05/17 13:22:11;;;;;;;12.43;5.95;;;665.60;2252.80;;;;;;4955294;29;20035;-84
2023/05/17 13:24:38;;;;;;;11.95;6.07;;;665.70;2227.20;;;;;;4955171;29;20031;-81
2023/05/17 13:27:05;;;;;;;10.70;4.82;;;665.90;2201.60;;;;;;4955728;29;20031;-82
2023/05/17 13:29:32;;;;;;;9.95;6.47;;;666.40;2227.20;;;;;;4954574;29;20059;-81
2023/05/17 13:31:58;;;;;;;15.55;6.22;;;665.70;2252.80;;;;;;4953320;29;20086;-83
2023/05/17 13:34:24;;;;;;;11.88;7.40;;;640.90;2252.80;;;;;;4940337;29;20023;-82
2023/05/17 13:36:50;;;;;;;15.10;6.25;;;640.70;2252.80;;;;;;4954921;29;20019;-84
2023/05/17 13:39:16;;;;;;;14.65;8.27;;;640.50;2304.00;;;;;;4954939;29;20030;-85
2023/05/17 13:41:42;;;;;;;10.57;6.57;;;640.20;2304.00;;;;;;4954492;29;20031;-84
2023/05/17 13:44:11;;;;;;;10.43;6.93;;;640.00;2329.60;;;;;;4956435;29;20118;-83
2023/05/17 13:46:37;;;;;;;13.00;7.50;;;615.20;2329.60;;;;;;4940248;29;20130;-83
2023/05/17 13:49:03;;;;;;;17.88;6.20;;;614.80;2329.60;;;;;;4938474;29;20066;-83
2023/05/17 13:51:30;;;;;;;17.65;6.93;;;614.60;2355.20;;;;;;4955400;29;20023;-85
2023/05/17 13:53:56;;;;;;;12.40;6.05;;;614.50;2380.80;;;;;;4954480;29;20031;-81
2023/05/17 13:56:22;;;;;;;10.25;5.60;;;589.70;2380.80;;;;;;4955978;29;20067;-86
2023/05/17 13:58:48;;;;;;;11.18;6.13;;;589.70;2406.40;;;;;;4954299;29;20042;-86
2023/05/17 14:01:15;;;;;;;13.75;6.78;;;589.70;2432.00;;;;;;4956047;29;20031;-86
2023/05/17 14:03:41;;;;;;;10.10;5.85;;;589.50;2432.00;;;;;;4955450;29;20039;-83
2023/05/17 14:06:07;;;;;;;8.65;5.90;;;589.40;2432.00;;;;;;4955500;29;20035;-86
2023/05/17 14:08:33;;;;;;;12.18;6.68;;;589.10;2432.00;;;;;;4955128;29;20027;-85
2023/05/17 14:10:59;;;;;;;10.40;6.10;;;589.10;2432.00;;;;;;4952523;29;20024;-86
2023/05/17 14:13:25;;;;;;;11.73;5.72;;;589.00;2432.00;;;;;;4945014;28;20041;-87
2023/05/17 14:15:51;;;;;;;9.70;5.22;;;588.80;2432.00;;;;;;4955742;28;20500;-86
2023/05/17 14:18:17;;;;;;;11.65;6.13;;;588.80;2432.00;;;;;;4954912;29;20118;-83
2023/05/17 14:20:43;;;;;;;11.70;5.78;;;564.10;2432.00;;;;;;4956323;29;20031;-85
2023/05/17 14:23:09;;;;;;;9.65;6.10;;;564.00;2432.00;;;;;;4938121;29;20430;-83
2023/05/17 14:25:34;;;;;;;9.48;6.60;;;563.90;2432.00;;;;;;4939458;29;20145;-86
2023/05/17 14:28:00;;;;;;;10.93;6.43;;;563.70;2432.00;;;;;;4938172;29;20115;-84
2023/05/17 14:30:26;;;;;;;10.43;7.75;;;563.70;2432.00;;;;;;4955111;29;20067;-83
2023/05/17 14:32:52;;;;;;;10.20;7.05;;;563.60;2432.00;;;;;;4954643;29;20360;-84
2023/05/17 14:35:18;;;;;;;10.35;7.28;;;563.50;2432.00;;;;;;4954241;29;20126;-86
2023/05/17 14:37:44;;;;;;;8.88;6.28;;;563.40;2432.00;;;;;;4955018;29;20023;-89
2023/05/17 14:40:11;;;;;;;12.77;8.95;;;563.40;2432.00;;;;;;4954530;29;20047;-86
2023/05/17 14:42:38;;;;;;;11.57;7.82;;;563.20;2432.00;;;;;;4954073;28;20090;-84
2023/05/17 14:45:06;;;;;;;13.57;8.85;;;563.60;2432.00;;;;;;4954917;29;20054;-82
2023/05/17 14:47:33;;;;;;;8.93;6.60;;;538.50;2406.40;;;;;;4953501;29;20464;-83
2023/05/17 14:49:58;;;;;;;12.43;7.13;;;538.40;2406.40;;;;;;4955267;29;20387;-82
2023/05/17 14:52:24;;;;;;;23.92;15.20;;;538.30;2406.40;;;;;;4954070;29;20031;-85
2023/05/17 14:54:50;;;;;;;12.45;7.90;;;538.20;2406.40;;;;;;4954932;29;20031;-85
2023/05/17 14:57:16;;;;;;;11.00;8.38;;;538.30;2406.40;;;;;;4970814;28;20032;-84
2023/05/17 14:59:43;;;;;;;16.48;8.40;;;538.30;2406.40;;;;;;4955592;29;20027;-85
2023/05/17 15:02:09;;;;;;;20.52;13.02;;;538.30;2406.40;;;;;;4954443;29;20082;-84
2023/05/17 15:04:35;;;;;;;17.10;10.48;;;538.30;2406.40;;;;;;4954146;29;20034;-84
2023/05/17 15:07:01;;;;;;;21.88;13.55;;;538.30;2406.40;;;;;;4938679;29;20023;-84
2023/05/17 15:09:29;;;;;;;16.50;11.80;;;538.30;2406.40;;;;;;4937801;29;20023;-81
2023/05/17 15:11:55;;;;;;;26.20;13.25;;;538.20;2406.40;;;;;;4938812;29;20383;-84
2023/05/17 15:14:23;;;;;;;16.13;11.18;;;538.20;2406.40;;;;;;4937727;29;20387;-84
2023/05/17 15:16:50;;;;;;;20.52;12.85;;;538.20;2406.40;;;;;;4939094;29;20031;-85
2023/05/17 15:19:17;;;;;;;16.90;10.75;;;538.10;2406.40;;;;;;4937926;29;20031;-85
2023/05/17 15:21:43;;;;;;;12.18;8.98;;;538.00;2406.40;;;;;;4939111;29;20027;-80
2023/05/17 15:24:11;;;;;;;12.82;9.48;;;537.90;2406.40;;;;;;4954239;28;20039;-86
2023/05/17 15:26:37;;;;;;;14.93;9.65;;;537.90;2406.40;;;;;;4957584;29;20031;-83
2023/05/17 15:29:03;;;;;;;14.70;9.38;;;537.90;2406.40;;;;;;4957431;29;20027;-85
2023/05/17 15:31:29;;;;;;;22.48;11.43;;;537.70;2406.40;;;;;;4958371;29;20045;-83
2023/05/17 15:33:56;;;;;;;14.98;10.93;;;537.60;2406.40;;;;;;4941855;29;20035;-84
2023/05/17 15:36:22;;;;;;;13.27;9.02;;;537.60;2406.40;;;;;;4959599;29;20038;-83
2023/05/17 15:38:48;;;;;;;15.82;11.85;;;512.80;2380.80;;;;;;4958668;29;20083;-82
2023/05/17 15:41:17;;;;;;;14.10;9.77;;;512.80;2380.80;;;;;;4958424;29;20031;-81
2023/05/17 15:43:43;;;;;;;15.55;9.98;;;512.60;2380.80;;;;;;4950066;29;20039;-80
2023/05/17 15:46:10;;;;;;;14.20;9.75;;;512.50;2380.80;;;;;;4960297;29;20094;-83
2023/05/17 15:48:38;;;;;;;13.40;10.18;;;512.50;2380.80;;;;;;4958918;29;20037;-81
2023/05/17 15:51:05;;;;;;;17.02;10.55;;;512.50;2380.80;;;;;;4928341;29;20036;-80
2023/05/17 15:53:33;;;;;;;13.80;9.80;;;512.60;2380.80;;;;;;4958369;29;20079;-80
2023/05/17 15:55:59;;;;;;;13.10;10.48;;;512.50;2380.80;;;;;;4975161;28;20027;-79
2023/05/17 15:58:31;;;;;;;20.60;13.05;;;512.50;2380.80;;;;;;4941580;29;20034;-80
2023/05/17 16:01:01;;;;;;;14.65;9.90;;;512.50;2380.80;;;;;;4939780;29;20027;-79
2023/05/17 16:03:27;;;;;;;13.30;8.73;;;512.40;2380.80;;;;;;4939212;29;20027;-81
2023/05/17 16:05:52;;;;;;;14.18;9.32;;;512.40;2380.80;;;;;;4944590;28;20491;-80
2023/05/17 16:08:19;;;;;;;10.55;8.73;;;512.30;2380.80;;;;;;4962932;29;20078;-80
2023/05/17 16:10:46;;;;;;;11.20;8.75;;;512.30;2380.80;;;;;;4968196;29;20024;-80
2023/05/17 16:13:11;;;;;;;14.57;9.55;;;512.30;2380.80;;;;;;4967232;29;20391;-80
2023/05/17 16:15:37;;;;;;;11.90;9.20;;;512.00;2380.80;;;;;;4965044;29;20087;-81
2023/05/17 16:18:03;;;;;;;10.65;8.45;;;512.00;2380.80;;;;;;4951363;29;20126;-80
2023/05/17 16:20:29;;;;;;;13.30;8.93;;;487.30;2380.80;;;;;;4966089;29;20475;-81
2023/05/17 16:22:56;;;;;;;16.70;9.45;;;487.10;2380.80;;;;;;4962958;29;20099;-79
2023/05/17 16:25:26;;;;;;;11.23;8.63;;;487.20;2380.80;;;;;;4962886;29;20081;-80
2023/05/17 16:27:52;;;;;;;13.70;8.93;;;487.10;2380.80;;;;;;4964925;29;20020;-80
2023/05/17 16:30:18;;;;;;;11.20;8.00;;;487.10;2380.80;;;;;;4948595;29;20051;-81
2023/05/17 16:32:46;;;;;;;12.32;9.40;;;487.00;2380.80;;;;;;4963521;29;20033;-81
2023/05/17 16:35:12;;;;;;;17.45;11.93;;;487.10;2380.80;;;;;;4949642;29;20031;-80
2023/05/17 16:37:40;;;;;;;12.43;7.07;;;487.20;2380.80;;;;;;4979673;28;20023;-81
2023/05/17 16:40:07;;;;;;;9.07;7.38;;;487.10;2380.80;;;;;;4962280;29;20015;-81
2023/05/17 16:42:33;;;;;;;10.27;7.25;;;487.30;2380.80;;;;;;4963645;29;20039;-81
2023/05/17 16:44:58;;;;;;;42.67;30.42;;;487.30;2380.80;;;;;;4962373;29;20028;-81
2023/05/17 16:47:26;;;;;;;22.10;12.73;;;512.00;2380.80;;;;;;4962745;29;20023;-81
2023/05/17 16:49:53;;;;;;;13.43;10.82;;;512.00;2380.80;;;;;;4962924;28;20035;-80
2023/05/17 16:52:19;;;;;;;14.05;9.52;;;512.00;2380.80;;;;;;4943270;29;20036;-80
2023/05/17 16:54:45;;;;;;;10.68;7.32;;;512.00;2380.80;;;;;;4957504;29;20403;-81
2023/05/17 16:57:11;;;;;;;12.98;9.68;;;512.00;2380.80;;;;;;4947428;29;20032;-81
2023/05/17 16:59:37;;;;;;;9.40;7.45;;;512.00;2380.80;;;;;;4946835;29;20035;-80
2023/05/17 17:02:03;;;;;;;11.07;7.32;;;512.00;2380.80;;;;;;4957140;29;20059;-80
2023/05/17 17:04:30;;;;;;;11.38;6.45;;;512.10;2380.80;;;;;;4958755;29;20042;-79
2023/05/17 17:06:57;;;;;;;9.05;6.22;;;512.00;2380.80;;;;;;4969208;29;20051;-81
2023/05/17 17:09:23;;;;;;;10.20;6.72;;;512.00;2380.80;;;;;;4972395;29;20049;-81
2023/05/17 17:11:48;;;;;;;8.50;6.72;;;512.10;2380.80;;;;;;4962550;29;20078;-79
2023/05/17 17:14:15;;;;;;;10.38;6.93;;;512.00;2380.80;;;;;;4956782;29;20028;-81
2023/05/17 17:16:41;;;;;;;14.75;8.50;;;512.10;2380.80;;;;;;4955202;29;20038;-82
2023/05/17 17:19:07;;;;;;;13.18;9.60;;;512.10;2380.80;;;;;;4969683;29;20035;-81
2023/05/17 17:21:35;;;;;;;14.52;9.40;;;512.10;2380.80;;;;;;4964949;29;20051;-81
2023/05/17 17:24:05;;;;;;;9.93;7.13;;;512.10;2380.80;;;;;;4958646;29;20035;-81
2023/05/17 17:26:34;;;;;;;12.25;7.93;;;512.20;2380.80;;;;;;4957514;29;20027;-81
2023/05/17 17:29:00;;;;;;;9.70;7.63;;;537.70;2406.40;;;;;;4975781;29;20031;-81
2023/05/17 17:31:26;;;;;;;12.73;8.85;;;512.00;2380.80;;;;;;4969083;29;20033;-80
2023/05/17 17:33:52;;;;;;;11.82;8.98;;;512.00;2380.80;;;;;;4955448;29;20035;-82
2023/05/17 17:36:17;;;;;;;9.10;7.07;;;512.00;2380.80;;;;;;4953043;29;20033;-79
2023/05/17 17:38:44;;;;;;;11.88;8.27;;;487.30;2380.80;;;;;;4964498;29;20033;-79
2023/05/17 17:41:10;;;;;;;12.70;8.75;;;487.30;2380.80;;;;;;4962139;29;20379;-80
2023/05/17 17:43:36;;;;;;;13.80;9.73;;;487.30;2380.80;;;;;;4963368;29;20039;-79
2023/05/17 17:46:02;;;;;;;18.17;12.52;;;512.00;2380.80;;;;;;4966532;29;20023;-79
2023/05/17 17:48:28;;;;;;;13.70;10.30;;;487.30;2380.80;;;;;;4961543;28;20031;-80
2023/05/17 17:50:54;;;;;;;39.58;14.68;;;512.00;2380.80;;;;;;4965951;29;20041;-79
2023/05/17 17:53:21;;;;;;;14.10;10.52;;;512.00;2380.80;;;;;;4968502;29;20036;-80
2023/05/17 17:55:46;;;;;;;11.27;8.50;;;512.00;2380.80;;;;;;4976324;28;20143;-80
2023/05/17 17:58:12;;;;;;;12.38;9.75;;;487.30;2380.80;;;;;;4970703;29;20488;-80
2023/05/17 18:00:38;;;;;;;12.60;8.95;;;487.30;2380.80;;;;;;4970352;29;20023;-80
2023/05/17 18:03:04;;;;;;;10.60;8.02;;;487.30;2380.80;;;;;;4953718;29;20058;-80
2023/05/17 18:05:30;;;;;;;12.68;7.97;;;487.20;2380.80;;;;;;4954377;29;20170;-80
2023/05/17 18:07:56;;;;;;;11.52;8.45;;;487.20;2380.80;;;;;;4952936;29;20031;-81
2023/05/17 18:10:22;;;;;;;9.20;6.90;;;487.10;2380.80;;;;;;4969353;29;20051;-81
2023/05/17 18:12:48;;;;;;;12.38;8.07;;;487.10;2380.80;;;;;;4968093;29;20066;-80
2023/05/17 18:15:14;;;;;;;11.20;7.35;;;487.10;2380.80;;;;;;4968815;29;20027;-82
2023/05/17 18:17:40;;;;;;;10.15;6.45;;;487.10;2380.80;;;;;;4967960;29;20031;-81